createdAt,value
2018-11-22T12:16:41.562Z,2.97
2018-11-22T12:19:09.389Z,2.95
2018-11-22T12:21:37.090Z,3.06
2018-11-22T12:24:05.270Z,2.90
2018-11-22T12:26:33.053Z,2.91
2018-11-22T12:29:00.831Z,3.07
2018-11-22T12:31:28.561Z,3.00
2018-11-22T12:34:02.014Z,2.85
2018-11-22T12:36:36.969Z,2.91
2018-11-22T12:39:11.410Z,2.91
2018-11-22T12:41:39.241Z,2.92
2018-11-22T12:44:07.100Z,3.01
2018-11-22T12:46:34.845Z,2.97
2018-11-22T12:49:02.676Z,2.90
2018-11-22T12:51:30.439Z,2.88
2018-11-22T12:53:58.244Z,3.09
2018-11-22T12:56:26.023Z,3.03
2018-11-22T12:58:53.808Z,2.81
2018-11-22T13:01:21.611Z,3.12
2018-11-22T13:03:49.315Z,3.15
2018-11-22T13:06:17.162Z,3.15
2018-11-22T13:08:45.049Z,3.06
2018-11-22T13:11:12.816Z,2.89
2018-11-22T13:13:40.522Z,2.88
2018-11-22T13:16:08.299Z,2.85
2018-11-22T13:18:36.066Z,2.76
2018-11-22T13:21:03.828Z,2.79
2018-11-22T13:23:31.619Z,2.88
2018-11-22T13:26:00.301Z,2.80
2018-11-22T13:28:28.042Z,2.94
2018-11-22T13:30:55.815Z,2.93
2018-11-22T13:33:23.573Z,2.90
2018-11-22T13:35:51.321Z,2.96
2018-11-22T13:38:19.144Z,3.14
2018-11-22T13:40:46.903Z,2.90
2018-11-22T13:43:14.613Z,3.13
2018-11-22T13:45:42.393Z,3.02
2018-11-22T13:48:10.102Z,3.10
2018-11-22T13:50:41.959Z,2.99
2018-11-22T13:53:07.141Z,2.83
2018-11-22T13:55:35.019Z,2.67
2018-11-22T13:58:02.936Z,2.70
2018-11-22T14:00:31.971Z,2.66
2018-11-22T14:03:01.234Z,2.91
2018-11-22T14:05:29.093Z,2.98
2018-11-22T14:07:56.926Z,2.91
2018-11-22T14:10:24.725Z,2.93
2018-11-22T14:12:52.501Z,2.91
2018-11-22T14:15:22.349Z,3.02
2018-11-22T14:17:51.330Z,2.90
2018-11-22T14:20:20.638Z,2.91
2018-11-22T14:22:48.437Z,3.05
2018-11-22T14:25:16.683Z,2.92
2018-11-22T14:27:45.366Z,2.95
2018-11-22T14:30:17.434Z,2.90
2018-11-22T14:32:45.838Z,3.02
2018-11-22T14:35:14.844Z,2.88
2018-11-22T14:37:43.315Z,2.90
2018-11-22T14:40:14.437Z,2.86
2018-11-22T14:42:42.592Z,2.76
2018-11-22T14:45:11.877Z,2.93
2018-11-22T14:47:39.983Z,2.89
2018-11-22T14:50:14.094Z,2.87
2018-11-22T14:52:44.003Z,2.71
2018-11-22T14:55:11.954Z,2.71
2018-11-22T14:57:39.684Z,2.94
2018-11-22T15:00:11.802Z,2.84
2018-11-22T15:02:40.702Z,2.70
2018-11-22T15:05:09.018Z,2.79
2018-11-22T15:07:37.156Z,2.83
2018-11-22T15:10:06.131Z,2.70
2018-11-22T15:12:33.885Z,2.71
2018-11-22T15:15:01.605Z,2.76
2018-11-22T15:17:29.420Z,2.72
2018-11-22T15:19:57.255Z,2.76
2018-11-22T15:22:25.026Z,2.73
2018-11-22T15:24:52.827Z,2.82
2018-11-22T15:27:20.547Z,2.82
2018-11-22T15:29:48.316Z,2.87
2018-11-22T15:32:16.067Z,2.79
2018-11-22T15:34:43.788Z,2.78
2018-11-22T15:37:11.550Z,2.75
2018-11-22T15:39:39.357Z,2.78
2018-11-22T15:42:07.142Z,2.84
2018-11-22T15:44:34.887Z,2.52
2018-11-22T15:47:02.718Z,2.64
2018-11-22T15:49:30.498Z,2.73
2018-11-22T15:51:58.285Z,2.63
2018-11-22T15:54:26.333Z,2.72
2018-11-22T15:56:54.076Z,2.76
2018-11-22T15:59:21.867Z,2.74
2018-11-22T16:01:50.041Z,2.87
2018-11-22T16:04:17.926Z,3.16
2018-11-22T16:06:45.765Z,3.22
2018-11-22T16:09:13.513Z,2.96
2018-11-22T16:11:41.277Z,2.94
2018-11-22T16:14:09.097Z,2.79
2018-11-22T16:16:36.855Z,2.99
2018-11-22T16:19:04.897Z,2.87
2018-11-22T16:21:32.688Z,2.88
2018-11-22T16:24:00.419Z,3.06
2018-11-22T16:26:28.182Z,3.09
2018-11-22T16:28:56.033Z,3.14
2018-11-22T16:31:23.806Z,2.95
2018-11-22T16:33:51.532Z,2.94
2018-11-22T16:36:19.450Z,2.98
2018-11-22T16:38:47.198Z,3.08
2018-11-22T16:41:15.367Z,2.98
2018-11-22T16:43:43.085Z,2.99
2018-11-22T16:46:10.795Z,3.01
2018-11-22T16:48:38.555Z,3.01
2018-11-22T16:51:06.320Z,2.93
2018-11-22T16:53:34.076Z,2.90
2018-11-22T16:56:01.869Z,2.71
2018-11-22T16:58:29.713Z,2.87
2018-11-22T17:00:57.650Z,2.86
2018-11-22T17:03:25.397Z,2.79
2018-11-22T17:05:53.155Z,2.89
2018-11-22T17:08:20.941Z,2.90
2018-11-22T17:10:48.905Z,2.98
2018-11-22T17:13:16.642Z,2.88
2018-11-22T17:15:44.476Z,2.98
2018-11-22T17:18:12.333Z,3.01
2018-11-22T17:20:40.139Z,2.92
2018-11-22T17:23:08.215Z,3.06
2018-11-22T17:25:36.733Z,2.86
2018-11-22T17:28:05.978Z,2.91
2018-11-22T17:30:38.583Z,2.99
2018-11-22T17:33:06.460Z,3.18
2018-11-22T17:35:34.320Z,2.97
2018-11-22T17:38:03.313Z,3.00
2018-11-22T17:40:33.658Z,2.97
2018-11-22T17:43:01.526Z,3.21
2018-11-22T17:45:30.733Z,3.24
2018-11-22T17:47:58.563Z,3.20
2018-11-22T17:50:28.783Z,3.19
2018-11-22T17:52:56.714Z,3.32
2018-11-22T17:55:25.881Z,3.39
2018-11-22T17:57:53.770Z,3.30
2018-11-22T18:00:25.794Z,3.46
2018-11-22T18:02:54.936Z,3.37
2018-11-22T18:05:27.051Z,3.33
2018-11-22T18:07:50.735Z,3.31
2018-11-22T18:10:19.918Z,3.21
2018-11-22T18:12:48.395Z,3.39
2018-11-22T18:15:17.199Z,3.36
2018-11-22T18:17:45.221Z,3.46
2018-11-22T18:20:15.421Z,3.51
2018-11-22T18:22:43.557Z,3.45
2018-11-22T18:25:14.605Z,3.45
2018-11-22T18:27:42.387Z,3.28
2018-11-22T18:30:14.835Z,3.43
2018-11-22T18:32:43.337Z,3.59
2018-11-22T18:35:12.225Z,3.40
2018-11-22T18:37:40.755Z,3.31
2018-11-22T18:40:13.944Z,3.39
2018-11-22T18:42:42.065Z,3.53
2018-11-22T18:45:11.579Z,3.27
2018-11-22T18:47:39.886Z,3.25
2018-11-22T18:50:16.628Z,3.32
2018-11-22T18:52:44.897Z,3.42
2018-11-22T18:55:12.685Z,3.22
2018-11-22T18:57:41.529Z,3.32
2018-11-22T19:00:13.212Z,3.53
2018-11-22T19:02:41.105Z,3.65
2018-11-22T19:05:09.890Z,3.62
2018-11-22T19:07:37.938Z,3.56
2018-11-22T19:10:09.426Z,3.47
2018-11-22T19:12:37.155Z,3.69
2018-11-22T19:15:06.810Z,3.44
2018-11-22T19:17:34.573Z,3.54
2018-11-22T19:20:08.824Z,3.30
2018-11-22T19:22:30.150Z,3.59
2018-11-22T19:24:57.986Z,3.42
2018-11-22T19:27:25.742Z,3.29
2018-11-22T19:29:53.580Z,3.33
2018-11-22T19:32:21.459Z,3.26
2018-11-22T19:34:49.301Z,3.37
2018-11-22T19:37:17.070Z,3.28
2018-11-22T19:39:44.798Z,3.36
2018-11-22T19:42:12.605Z,3.36
2018-11-22T19:44:40.414Z,3.52
2018-11-22T19:47:08.194Z,3.49
2018-11-22T19:49:35.989Z,3.49
2018-11-22T19:52:03.899Z,3.53
2018-11-22T19:54:32.039Z,3.50
2018-11-22T19:56:59.829Z,3.59
2018-11-22T19:59:28.280Z,3.60
2018-11-22T20:01:56.096Z,3.56
2018-11-22T20:04:24.189Z,3.33
2018-11-22T20:06:52.537Z,3.33
2018-11-22T20:09:20.338Z,3.48
2018-11-22T20:11:48.183Z,3.58
2018-11-22T20:14:15.994Z,3.53
2018-11-22T20:16:43.850Z,3.48
2018-11-22T20:19:11.685Z,3.61
2018-11-22T20:21:39.567Z,3.53
2018-11-22T20:24:07.321Z,3.49
2018-11-22T20:26:35.188Z,3.35
2018-11-22T20:29:03.079Z,3.28
2018-11-22T20:31:30.918Z,3.32
2018-11-22T20:33:58.788Z,3.35
2018-11-22T20:36:26.617Z,3.46
2018-11-22T20:38:54.390Z,3.52
2018-11-22T20:41:22.225Z,3.41
2018-11-22T20:43:50.570Z,3.41
2018-11-22T20:46:18.506Z,3.39
2018-11-22T20:48:46.428Z,3.21
2018-11-22T20:51:14.293Z,3.34
2018-11-22T20:53:42.132Z,3.33
2018-11-22T20:56:10.094Z,3.29
2018-11-22T20:58:38.245Z,3.22
2018-11-22T21:01:06.409Z,3.18
2018-11-22T21:03:34.340Z,3.16
2018-11-22T21:06:02.776Z,3.12
2018-11-22T21:08:30.909Z,3.34
2018-11-22T21:10:58.689Z,3.27
2018-11-22T21:13:26.506Z,3.41
2018-11-22T21:15:54.313Z,3.42
2018-11-22T21:18:22.139Z,3.31
2018-11-22T21:20:49.919Z,3.40
2018-11-22T21:23:17.676Z,3.31
2018-11-22T21:25:45.485Z,3.31
2018-11-22T21:28:13.180Z,3.47
2018-11-22T21:30:41.069Z,3.43
2018-11-22T21:33:09.113Z,3.42
2018-11-22T21:35:37.175Z,3.42
2018-11-22T21:38:06.055Z,3.49
2018-11-22T21:40:34.262Z,3.47
2018-11-22T21:43:02.062Z,3.36
2018-11-22T21:45:30.481Z,3.39
2018-11-22T21:47:58.267Z,3.50
2018-11-22T21:50:26.903Z,3.23
2018-11-22T21:52:54.690Z,3.24
2018-11-22T21:55:23.681Z,3.25
2018-11-22T21:57:52.454Z,3.33
2018-11-22T22:00:27.016Z,3.30
2018-11-22T22:02:57.440Z,3.32
2018-11-22T22:05:25.192Z,3.18
2018-11-22T22:07:52.976Z,3.25
2018-11-22T22:10:20.710Z,3.20
2018-11-22T22:12:48.658Z,3.22
2018-11-22T22:15:17.965Z,3.06
2018-11-22T22:17:46.246Z,3.23
2018-11-22T22:20:17.521Z,3.36
2018-11-22T22:22:45.283Z,3.34
2018-11-22T22:25:15.392Z,3.46
2018-11-22T22:27:43.454Z,3.31
2018-11-22T22:30:13.687Z,3.29
2018-11-22T22:32:41.975Z,3.38
2018-11-22T22:35:09.912Z,3.60
2018-11-22T22:37:38.202Z,3.59
2018-11-22T22:40:08.559Z,3.44
2018-11-22T22:42:36.315Z,3.46
2018-11-22T22:45:04.595Z,3.46
2018-11-22T22:47:32.353Z,3.49
2018-11-22T22:50:00.124Z,3.36
2018-11-22T22:52:27.862Z,3.56
2018-11-22T22:54:55.597Z,3.56
2018-11-22T22:57:23.406Z,3.52
2018-11-22T22:59:51.172Z,3.69
2018-11-22T23:02:18.915Z,3.73
2018-11-22T23:04:46.674Z,3.50
2018-11-22T23:07:14.448Z,3.58
2018-11-22T23:09:42.248Z,3.53
2018-11-22T23:12:10.042Z,3.75
2018-11-22T23:14:37.838Z,3.67
2018-11-22T23:17:05.845Z,3.56
2018-11-22T23:19:33.920Z,3.57
2018-11-22T23:22:01.729Z,3.53
2018-11-22T23:24:31.044Z,3.45
2018-11-22T23:26:58.845Z,3.51
2018-11-22T23:29:26.706Z,3.43
2018-11-22T23:31:54.607Z,3.35
2018-11-22T23:34:22.555Z,3.49
2018-11-22T23:36:50.369Z,3.43
2018-11-22T23:39:18.171Z,3.38
2018-11-22T23:41:45.957Z,3.40
2018-11-22T23:44:13.728Z,3.40
2018-11-22T23:46:41.530Z,3.65
2018-11-22T23:49:09.319Z,3.63
2018-11-22T23:51:37.085Z,3.44
2018-11-22T23:54:04.886Z,3.38
2018-11-22T23:56:33.177Z,3.32
2018-11-22T23:59:00.909Z,3.49
